createdAt,value
2017-08-17T00:05:54.663Z,6.93
2017-08-17T00:16:17.263Z,9.27
2017-08-17T00:26:40.812Z,8.20
2017-08-17T00:37:02.881Z,9.63
2017-08-17T00:42:08.774Z,10.43
2017-08-17T00:57:52.547Z,10.80
2017-08-17T01:08:14.863Z,10.18
2017-08-17T01:18:37.432Z,11.27
2017-08-17T01:23:42.911Z,15.43
2017-08-17T01:34:05.246Z,9.98
2017-08-17T01:44:26.783Z,14.83
2017-08-17T02:00:04.309Z,11.73
2017-08-17T02:10:26.192Z,9.50
2017-08-17T02:15:31.992Z,9.57
2017-08-17T02:25:53.774Z,8.50
2017-08-17T02:36:16.475Z,10.83
2017-08-17T02:46:39.069Z,11.63
2017-08-17T02:57:01.111Z,11.27
2017-08-17T03:07:23.743Z,11.30
2017-08-17T03:17:44.802Z,9.20
2017-08-17T03:28:07.430Z,15.17
2017-08-17T03:38:29.290Z,9.37
2017-08-17T03:48:51.944Z,14.37
2017-08-17T03:59:14.576Z,19.45
2017-08-17T04:04:20.405Z,12.83
2017-08-17T04:14:42.282Z,12.80
2017-08-17T04:25:05.399Z,16.20
2017-08-17T04:30:11.241Z,16.57
2017-08-17T04:40:33.124Z,11.05
2017-08-17T04:50:55.023Z,12.50
2017-08-17T05:01:33.175Z,15.20
2017-08-17T05:06:39.071Z,10.83
2017-08-17T05:17:01.697Z,12.02
2017-08-17T05:27:23.635Z,13.88
2017-08-17T05:37:45.953Z,11.77
2017-08-17T05:48:08.605Z,10.90
2017-08-17T05:58:31.372Z,9.40
2017-08-17T06:08:53.475Z,9.10
2017-08-17T06:19:16.258Z,9.80
2017-08-17T06:29:38.350Z,12.10
2017-08-17T06:40:01.034Z,10.60
2017-08-17T06:55:40.163Z,13.98
2017-08-17T07:06:03.671Z,8.00
2017-08-17T07:11:09.493Z,14.03
2017-08-17T07:21:36.023Z,9.88
2017-08-17T07:31:58.955Z,12.82
2017-08-17T07:42:22.594Z,8.63
2017-08-17T07:58:02.343Z,8.15
2017-08-17T08:08:24.444Z,4.30
2017-08-17T08:18:50.213Z,6.80
2017-08-17T08:29:13.078Z,7.90
2017-08-17T08:39:36.673Z,3.00
2017-08-17T08:55:16.903Z,3.15
2017-08-17T09:05:39.933Z,3.95
2017-08-17T09:16:02.764Z,2.33
2017-08-17T09:26:25.680Z,3.33
2017-08-17T09:36:48.528Z,4.10
2017-08-17T09:47:10.544Z,2.15
2017-08-17T09:57:33.407Z,4.57
2017-08-17T10:07:56.071Z,2.37
2017-08-17T10:18:17.448Z,8.30
2017-08-17T10:28:39.829Z,2.90
2017-08-17T10:39:02.439Z,3.60
2017-08-17T10:49:24.035Z,3.80
2017-08-17T10:59:46.771Z,4.57
2017-08-17T11:10:09.208Z,3.30
2017-08-17T11:20:30.828Z,4.20
2017-08-17T11:30:53.296Z,10.50
2017-08-17T11:41:15.151Z,9.93
2017-08-17T11:46:20.945Z,3.60
2017-08-17T11:56:43.323Z,4.43
2017-08-17T12:07:05.806Z,4.27
2017-08-17T12:17:27.581Z,6.90
2017-08-17T12:27:51.023Z,4.00
2017-08-17T12:38:12.631Z,3.57
2017-08-17T12:54:16.741Z,4.87
2017-08-17T13:04:41.811Z,3.23
2017-08-17T13:15:04.207Z,3.17
2017-08-17T13:25:27.510Z,5.20
2017-08-17T13:35:49.191Z,3.43
2017-08-17T13:46:10.997Z,4.22
2017-08-17T13:56:37.682Z,4.73
2017-08-17T14:06:59.870Z,4.82
2017-08-17T14:17:22.477Z,9.50
2017-08-17T14:27:45.180Z,4.93
2017-08-17T14:38:08.652Z,4.32
2017-08-17T14:48:35.178Z,2.58
2017-08-17T14:58:58.772Z,3.80
2017-08-17T15:09:20.757Z,5.70
2017-08-17T15:19:44.003Z,3.10
2017-08-17T15:30:06.639Z,3.90
2017-08-17T15:35:12.388Z,2.73
2017-08-17T15:45:34.315Z,3.10
2017-08-17T15:55:56.299Z,4.35
2017-08-17T16:06:18.172Z,5.80
2017-08-17T16:16:40.757Z,3.05
2017-08-17T16:27:06.725Z,2.87
2017-08-17T16:37:29.286Z,5.22
2017-08-17T16:47:51.866Z,3.20
2017-08-17T16:58:14.424Z,8.30
2017-08-17T17:08:36.939Z,3.65
2017-08-17T17:18:58.104Z,3.70
2017-08-17T17:29:20.717Z,2.60
2017-08-17T17:45:00.174Z,4.05
2017-08-17T17:55:22.769Z,3.75
2017-08-17T18:05:46.785Z,2.70
2017-08-17T18:16:09.592Z,4.37
2017-08-17T18:26:37.194Z,5.07
2017-08-17T18:36:58.286Z,4.30
2017-08-17T18:47:20.190Z,2.50
2017-08-17T18:57:42.073Z,2.80
2017-08-17T19:08:06.548Z,3.70
2017-08-17T19:18:33.479Z,3.80
2017-08-17T19:28:57.054Z,5.28
2017-08-17T19:44:35.289Z,3.50
2017-08-17T19:54:57.065Z,3.47
2017-08-17T20:05:20.085Z,5.53
2017-08-17T20:15:42.807Z,3.10
2017-08-17T20:26:05.593Z,4.80
2017-08-17T20:36:28.448Z,2.30
2017-08-17T20:46:51.065Z,6.60
2017-08-17T20:57:13.025Z,3.70
2017-08-17T21:07:35.909Z,4.03
2017-08-17T21:17:59.513Z,2.30
2017-08-17T21:28:22.118Z,3.90
2017-08-17T21:38:45.640Z,4.12
2017-08-17T21:49:07.494Z,3.60
2017-08-17T21:59:31.013Z,2.87
2017-08-17T22:09:55.781Z,3.40
2017-08-17T22:20:17.996Z,2.72
2017-08-17T22:30:40.746Z,2.42
2017-08-17T22:46:20.950Z,3.60
2017-08-17T22:56:43.085Z,2.60
2017-08-17T23:07:57.405Z,1.90
2017-08-17T23:18:20.064Z,3.05
2017-08-17T23:28:41.893Z,5.68
2017-08-17T23:44:22.412Z,3.00
2017-08-17T23:54:44.928Z,2.80
